To NAV CANADA Home Page Login to a new session Search on AWWS site Feedback and Comments Disclaimer Vers la page française équivalente Tips FAQ What's new on the site To the Forecasts and Observations / NOTAM section To "File a Flight Plan" website Publications and other links Update of the User's profile FIC Telephone Numbers My Weather Data Folder Route Weather Data Regional Weather Data Local Weather Data To the Forecasts and Observations / NOTAM section
Request Generated 10/17/2017 at 01:48:04 UTC . Weather information available at that time is displayed.

METAR/TAF

STONY RAPIDS/SK    (show WxCam)

SPECI CYSF 170132Z AUTO 10004KT 9SM OVC024 01/01 A2966 RMK SLP061=
METAR CYSF 170100Z AUTO 11003KT 9SM OVC028 01/01 A2967 RMK SLP063=
SPECI CYSF 170028Z AUTO 10002KT 9SM OVC034 01/01 A2966 RMK SLP062=
SPECI CYSF 170010Z AUTO 10003KT 9SM -RA SCT016 SCT024 OVC038 01/01
A2966 RMK SLP062=
SPECI CYSF 170008Z AUTO 10003KT 9SM -RA SCT018 BKN024 OVC040 01/01
A2966 RMK SLP062=
SPECI CYSF 170003Z AUTO 11003KT 9SM -RA SCT018 BKN026 OVC040 01/01
A2966 RMK SLP062=
METAR CYSF 170000Z AUTO 12003KT 9SM -RA BKN018 BKN024 OVC040 01/01
A2966 RMK SLP062=
SPECI CYSF 162328Z AUTO 10005KT 9SM -RA BKN018 OVC043 01/01 A2966 RMK
SLP061=
METAR CYSF 162300Z AUTO 13002KT 9SM -RA FEW018 SCT024 OVC031 01/01
A2966 RMK SLP060=

TAF CYSF 162338Z 1700/1712 VRB03KT P6SM FEW012 SCT020 OVC050 TEMPO
1700/1706 5SM -RA BR SCT012 BKN020
BECMG 1701/1702 11005KT
FM170600 11005KT P6SM OVC020 TEMPO 1706/1712 2SM BR OVC005 PROB30
1708/1712 3/4SM BR OVC004
RMK FCST BASED ON AUTO OBS. NXT FCST BY 170600Z=
Your time UTC time
Weather data provided by Environment Canada and NAV CANADA